Terminal Aerodrome Forecast
Issued by NWS

Home | Current Version | Previous Version | Text Only | Print | Product List | Glossary On
Versions: 1 2 3 4 5 6 7 8 9 10 11 12 13 14 15 16 17 18 19 20
000
FTUS43 KEAX 260500 CCA
TAFSTJ
TAF COR
KSTJ 260540Z 2606/2706 VRB04KT 4SM BR SCT035
      TEMPO 2606/2610 1SM BR
     FM261000 23010KT P6SM SCT250
     FM261800 31012G20KT P6SM SCT100
     FM270000 34008KT P6SM SKC=

USA.gov is the U.S. government's official web portal to all federal, state and local government web resources and services.